Time;durP1;ratioP1;P1;durP2;ratioP2;P2;SDS_P1;SDS_P2;PMS_P1;PMS_P2;Temp;Humidity;BMP_temperature;BMP_pressure;BME280_temperature;BME280_humidity;BME280_pressure;Samples;Min_cycle;Max_cycle;Signal;HPM_P1;HPM_P2
2021/01/22 00:01:28;;;;;;;0.90;0.70;;;12.00;96.10;;;;;;4994117;28;20863;-86
2021/01/22 00:03:55;;;;;;;1.17;0.93;;;12.00;96.10;;;;;;4994328;28;20460;-86
2021/01/22 00:06:23;;;;;;;1.23;0.97;;;12.00;96.10;;;;;;4993969;28;20471;-86
2021/01/22 00:08:49;;;;;;;1.43;0.93;;;11.90;96.20;;;;;;4993808;28;20454;-87
2021/01/22 00:11:15;;;;;;;1.50;1.03;;;11.90;96.20;;;;;;5009038;28;20455;-86
2021/01/22 00:13:42;;;;;;;1.00;0.70;;;11.90;96.40;;;;;;4994127;28;20949;-85
2021/01/22 00:16:08;;;;;;;1.07;0.90;;;11.90;96.60;;;;;;4993588;28;20468;-86
2021/01/22 00:18:34;;;;;;;1.70;1.10;;;11.80;96.70;;;;;;4993565;28;20456;-86
2021/01/22 00:21:01;;;;;;;1.30;0.90;;;11.70;96.90;;;;;;5008025;28;21029;-86
2021/01/22 00:23:29;;;;;;;1.40;1.03;;;11.70;97.10;;;;;;5013470;28;20817;-86
2021/01/22 00:25:55;;;;;;;0.90;0.70;;;11.70;97.20;;;;;;5013662;28;20474;-87
2021/01/22 00:28:22;;;;;;;1.53;1.37;;;11.60;97.40;;;;;;5012662;28;20958;-87
2021/01/22 00:30:49;;;;;;;1.63;0.73;;;11.50;97.70;;;;;;4999776;28;20447;-86
2021/01/22 00:33:16;;;;;;;1.80;0.80;;;11.40;97.70;;;;;;4993637;28;20474;-86
2021/01/22 00:35:43;;;;;;;1.20;0.90;;;11.40;97.90;;;;;;4993570;28;20479;-86
2021/01/22 00:38:10;;;;;;;1.97;1.07;;;11.40;98.10;;;;;;4993631;28;20980;-87
2021/01/22 00:40:37;;;;;;;1.10;0.87;;;11.30;98.30;;;;;;5005314;28;20489;-86
2021/01/22 00:43:04;;;;;;;1.33;1.10;;;11.20;98.40;;;;;;5013111;28;20545;-87
2021/01/22 02:32:43;;;;;;;;;;;;;;;;;;;;;
2021/01/22 04:37:12;;;;;;;3.13;0.97;;;10.40;96.40;;;;;;4815817;29;20491;-86
2021/01/22 06:59:44;;;;;;;0.57;0.40;;;10.80;96.20;;;;;;4733784;30;20579;-86
2021/01/22 07:02:38;;;;;;;2.30;0.80;;;10.70;96.20;;;;;;4856441;29;20485;-86
2021/01/22 07:05:43;;;;;;;2.10;1.00;;;10.70;96.10;;;;;;4930546;28;20484;-86
2021/01/22 07:08:11;;;;;;;2.30;0.73;;;10.70;96.20;;;;;;5009614;28;20472;-85
2021/01/22 07:11:06;;;;;;;2.30;0.90;;;10.80;96.10;;;;;;5014926;28;20460;-85
2021/01/22 07:13:42;;;;;;;2.13;1.20;;;10.70;96.20;;;;;;5014895;28;20490;-85
2021/01/22 07:16:10;;;;;;;1.93;1.00;;;10.70;96.20;;;;;;5014634;28;20640;-86
2021/01/22 07:18:45;;;;;;;4.80;0.90;;;10.60;96.20;;;;;;5014508;28;20458;-87
2021/01/22 07:21:30;;;;;;;2.17;0.77;;;10.70;96.20;;;;;;5014414;28;20477;-86
2021/01/22 07:23:58;;;;;;;3.90;1.20;;;10.70;96.10;;;;;;5014627;28;20442;-87
2021/01/22 07:26:28;;;;;;;1.43;0.97;;;10.70;96.20;;;;;;5014536;28;20470;-86
2021/01/22 07:28:55;;;;;;;3.27;0.90;;;10.60;96.10;;;;;;5014723;28;20455;-87
2021/01/22 07:31:49;;;;;;;3.10;0.90;;;10.60;96.10;;;;;;5022413;28;20450;-86
2021/01/22 07:34:37;;;;;;;4.23;1.30;;;10.60;96.10;;;;;;5033569;28;20457;-86
2021/01/22 07:37:04;;;;;;;2.87;1.20;;;10.60;96.10;;;;;;5027764;28;20453;-86
2021/01/22 07:39:31;;;;;;;3.20;1.10;;;10.60;96.20;;;;;;5014430;28;20448;-86
2021/01/22 07:42:07;;;;;;;2.60;0.80;;;10.60;96.30;;;;;;5014079;28;20488;-86
2021/01/22 07:44:34;;;;;;;4.53;1.43;;;10.60;96.20;;;;;;5014003;28;20452;-86
2021/01/22 07:47:02;;;;;;;0.90;0.70;;;10.60;96.20;;;;;;5013864;28;20446;-86
2021/01/22 07:49:28;;;;;;;2.30;0.83;;;10.60;96.10;;;;;;5013986;28;20493;-86
2021/01/22 07:52:01;;;;;;;1.63;0.77;;;10.60;96.00;;;;;;5013926;28;20450;-86
2021/01/22 07:54:27;;;;;;;2.20;0.93;;;10.70;95.80;;;;;;5013821;28;20480;-87
2021/01/22 07:56:54;;;;;;;1.60;0.80;;;10.80;95.70;;;;;;5013062;28;20457;-87
2021/01/22 07:59:20;;;;;;;1.80;0.83;;;10.80;95.60;;;;;;5014063;28;20954;-88
2021/01/22 08:01:49;;;;;;;2.50;0.87;;;10.90;95.50;;;;;;5013834;28;20489;-86
2021/01/22 08:04:33;;;;;;;3.13;1.53;;;11.00;95.40;;;;;;5013482;28;20473;-87
2021/01/22 08:06:59;;;;;;;2.37;0.70;;;11.00;95.20;;;;;;5013743;28;20454;-87
2021/01/22 08:09:25;;;;;;;1.20;0.77;;;11.10;95.10;;;;;;5013638;28;20491;-86
2021/01/22 08:12:07;;;;;;;3.60;1.30;;;11.10;95.00;;;;;;5014125;28;20446;-86
2021/01/22 08:14:34;;;;;;;2.10;1.40;;;11.20;95.10;;;;;;5013456;28;20460;-86
2021/01/22 08:17:02;;;;;;;1.10;0.70;;;11.30;95.00;;;;;;5013408;28;20532;-85
2021/01/22 08:19:31;;;;;;;1.33;0.90;;;11.30;94.80;;;;;;5013481;28;20457;-85
2021/01/22 08:21:57;;;;;;;3.20;1.10;;;11.40;94.80;;;;;;5013586;28;20477;-86
2021/01/22 08:24:24;;;;;;;1.47;0.80;;;11.50;94.70;;;;;;5013380;28;20452;-85
2021/01/22 08:27:01;;;;;;;2.13;1.30;;;11.50;95.00;;;;;;5012986;28;21287;-85
2021/01/22 08:29:29;;;;;;;2.73;0.93;;;11.60;94.70;;;;;;5013426;28;20533;-86
2021/01/22 08:31:56;;;;;;;2.27;1.27;;;11.70;94.60;;;;;;5012650;28;20818;-86
2021/01/22 08:34:24;;;;;;;2.37;1.10;;;11.60;94.50;;;;;;5007680;28;20505;-86
2021/01/22 08:36:52;;;;;;;1.40;0.87;;;11.80;94.70;;;;;;5013397;28;20477;-87
2021/01/22 08:39:18;;;;;;;1.47;0.70;;;11.80;94.50;;;;;;5013075;28;20450;-86
2021/01/22 08:41:45;;;;;;;1.83;0.80;;;11.90;94.30;;;;;;5012636;28;20475;-86
2021/01/22 08:44:11;;;;;;;20.97;2.03;;;12.00;94.20;;;;;;5012981;28;20472;-87
2021/01/22 08:46:48;;;;;;;3.07;1.00;;;12.00;94.20;;;;;;5012088;28;20477;-87
2021/01/22 08:49:15;;;;;;;1.43;0.97;;;12.00;94.00;;;;;;5013041;28;20450;-86
2021/01/22 08:51:41;;;;;;;4.10;0.97;;;12.10;94.20;;;;;;5012629;28;20442;-87
2021/01/22 08:54:09;;;;;;;2.03;0.90;;;12.20;94.00;;;;;;5012962;28;20446;-88
2021/01/22 08:56:35;;;;;;;6.47;1.07;;;12.30;93.70;;;;;;5013058;28;20481;-88
2021/01/22 08:59:06;;;;;;;2.90;0.87;;;12.50;93.60;;;;;;5012640;28;20445;-85
2021/01/22 09:01:55;;;;;;;2.30;1.07;;;12.60;93.30;;;;;;5012431;28;20475;-86
2021/01/22 09:04:23;;;;;;;3.07;1.30;;;12.80;92.70;;;;;;5012638;28;20882;-86
2021/01/22 09:06:51;;;;;;;2.80;0.97;;;13.00;92.60;;;;;;5012957;28;20525;-85
2021/01/22 09:09:36;;;;;;;2.63;1.10;;;13.20;91.90;;;;;;5012448;28;20971;-86
2021/01/22 09:12:14;;;;;;;1.93;1.00;;;13.30;91.80;;;;;;5012456;28;20884;-86
2021/01/22 09:14:48;;;;;;;1.90;0.90;;;13.30;91.70;;;;;;5012565;28;20509;-86
2021/01/22 09:17:28;;;;;;;2.50;1.00;;;13.40;91.80;;;;;;5012497;28;20508;-86
2021/01/22 09:19:59;;;;;;;3.90;0.80;;;13.50;91.40;;;;;;5012645;28;20942;-87
2021/01/22 09:22:26;;;;;;;2.67;0.90;;;13.40;91.30;;;;;;5012297;28;20481;-86
2021/01/22 09:24:54;;;;;;;2.83;0.90;;;13.30;91.40;;;;;;5012256;28;20472;-87
2021/01/22 09:27:21;;;;;;;4.27;1.10;;;13.30;91.50;;;;;;5012027;28;20955;-85
2021/01/22 09:29:47;;;;;;;2.97;1.17;;;13.20;91.40;;;;;;5012384;28;20509;-86
2021/01/22 09:32:14;;;;;;;2.23;1.00;;;13.30;91.40;;;;;;5011503;28;20509;-87
2021/01/22 09:34:40;;;;;;;1.93;0.80;;;13.60;91.40;;;;;;5012051;28;20443;-87
2021/01/22 09:37:07;;;;;;;4.17;1.30;;;13.80;90.80;;;;;;5012102;28;20461;-87
2021/01/22 09:39:33;;;;;;;3.20;1.90;;;14.10;90.80;;;;;;5012240;28;20465;-87
2021/01/22 09:42:00;;;;;;;1.20;1.00;;;14.20;90.40;;;;;;5011616;28;20493;-86
2021/01/22 09:44:27;;;;;;;4.33;1.37;;;14.20;90.20;;;;;;5011461;28;20932;-86
2021/01/22 09:46:53;;;;;;;9.33;2.40;;;14.40;90.20;;;;;;5013235;28;20470;-88
2021/01/22 09:49:22;;;;;;;2.20;1.17;;;14.30;89.90;;;;;;5011754;28;20862;-85
2021/01/22 09:51:49;;;;;;;3.60;1.20;;;14.10;90.20;;;;;;5011700;28;20487;-83
2021/01/22 09:54:15;;;;;;;4.53;1.10;;;14.10;90.00;;;;;;5011558;28;20457;-82
2021/01/22 09:56:41;;;;;;;3.63;1.03;;;14.00;90.10;;;;;;5011458;28;20501;-81
2021/01/22 09:59:08;;;;;;;3.20;1.47;;;13.70;90.70;;;;;;5011585;28;20464;-82
2021/01/22 10:01:35;;;;;;;2.90;1.20;;;13.70;90.70;;;;;;5011096;28;20487;-86
2021/01/22 10:04:01;;;;;;;2.80;1.60;;;13.70;90.70;;;;;;5011796;28;20828;-86
2021/01/22 10:06:31;;;;;;;2.07;1.50;;;13.70;90.50;;;;;;5010751;28;20470;-87
2021/01/22 10:08:58;;;;;;;2.83;1.33;;;13.80;90.50;;;;;;5011178;28;20502;-86
2021/01/22 10:11:24;;;;;;;1.90;1.20;;;13.90;90.20;;;;;;5008398;28;20456;-86
2021/01/22 10:13:54;;;;;;;5.57;1.33;;;13.90;90.40;;;;;;5011198;28;20442;-87
2021/01/22 10:16:23;;;;;;;3.53;1.77;;;14.20;90.50;;;;;;5010836;28;20551;-86
2021/01/22 10:18:50;;;;;;;4.07;1.80;;;14.70;89.10;;;;;;5008523;28;20501;-87
2021/01/22 10:21:17;;;;;;;3.10;1.23;;;14.90;88.10;;;;;;5010754;28;20480;-87
2021/01/22 10:23:45;;;;;;;1.43;1.10;;;14.80;87.30;;;;;;5009143;28;20493;-87
2021/01/22 10:26:11;;;;;;;2.53;1.53;;;14.50;88.00;;;;;;5010575;28;20874;-87
2021/01/22 10:28:37;;;;;;;5.53;1.63;;;14.40;89.00;;;;;;5010777;28;20815;-86
2021/01/22 10:31:03;;;;;;;3.37;1.07;;;14.20;89.20;;;;;;5011103;28;20441;-88
2021/01/22 10:33:30;;;;;;;2.30;0.80;;;14.30;89.40;;;;;;5012115;28;20457;-86
2021/01/22 10:35:57;;;;;;;2.90;1.37;;;14.20;89.10;;;;;;5010662;28;20575;-86
2021/01/22 10:38:23;;;;;;;8.30;1.30;;;14.30;89.30;;;;;;5012112;28;20826;-87
2021/01/22 10:40:49;;;;;;;2.20;1.20;;;14.80;88.90;;;;;;5010907;28;20548;-86
2021/01/22 10:43:15;;;;;;;5.47;1.10;;;15.30;87.30;;;;;;5010715;28;20961;-86
2021/01/22 10:45:42;;;;;;;2.07;1.10;;;15.50;85.80;;;;;;5010885;28;20529;-86
2021/01/22 10:48:19;;;;;;;2.63;1.33;;;15.40;86.00;;;;;;5009707;28;20468;-89
2021/01/22 10:50:48;;;;;;;2.47;1.30;;;15.80;86.00;;;;;;5009213;28;20510;-87
2021/01/22 10:53:15;;;;;;;2.07;0.90;;;17.40;83.90;;;;;;5008601;28;20517;-88
2021/01/22 10:55:41;;;;;;;3.93;1.07;;;18.20;77.30;;;;;;5010525;28;20480;-86
2021/01/22 10:58:07;;;;;;;4.80;1.30;;;18.50;76.80;;;;;;5008137;28;20458;-86
2021/01/22 11:00:34;;;;;;;4.50;1.20;;;19.00;75.40;;;;;;5010993;28;20450;-87
2021/01/22 11:03:01;;;;;;;13.70;3.47;;;19.70;73.90;;;;;;5010579;28;20956;-86
2021/01/22 11:05:28;;;;;;;1.90;1.50;;;19.40;72.00;;;;;;5006156;28;20466;-87
2021/01/22 11:07:55;;;;;;;3.20;1.17;;;18.60;73.00;;;;;;5008574;28;20443;-86
2021/01/22 11:10:21;;;;;;;0.80;0.77;;;17.60;75.10;;;;;;5013532;28;20434;-87
2021/01/22 11:12:47;;;;;;;1.90;0.90;;;17.00;77.80;;;;;;5014283;28;20492;-86
2021/01/22 11:15:14;;;;;;;3.20;1.77;;;16.60;78.70;;;;;;5012150;28;20462;-86
2021/01/22 11:17:40;;;;;;;1.87;1.10;;;16.70;79.50;;;;;;5013884;28;20969;-87
2021/01/22 11:20:08;;;;;;;1.63;0.80;;;17.10;79.10;;;;;;5013610;28;20470;-86
2021/01/22 11:22:35;;;;;;;1.70;1.10;;;17.40;78.10;;;;;;5012047;28;20478;-88
2021/01/22 11:25:02;;;;;;;1.80;0.90;;;17.40;77.90;;;;;;5013415;28;21012;-87
2021/01/22 11:27:28;;;;;;;2.60;1.23;;;16.70;78.20;;;;;;5011904;28;20459;-87
2021/01/22 11:29:54;;;;;;;1.67;0.60;;;15.90;80.30;;;;;;5012955;28;20450;-87
2021/01/22 11:32:20;;;;;;;1.83;0.80;;;15.60;82.10;;;;;;5013608;28;20813;-86
2021/01/22 11:34:49;;;;;;;2.73;0.77;;;15.40;83.80;;;;;;5013752;28;20434;-86
2021/01/22 11:37:16;;;;;;;3.33;0.97;;;15.30;83.50;;;;;;5012088;28;20797;-86
2021/01/22 11:39:42;;;;;;;1.97;1.00;;;15.20;84.00;;;;;;5011794;28;20459;-87
2021/01/22 11:42:10;;;;;;;1.40;1.00;;;15.70;83.40;;;;;;5013074;28;20478;-86
2021/01/22 11:44:37;;;;;;;2.60;1.00;;;16.90;80.30;;;;;;5014019;28;20477;-87
2021/01/22 11:47:03;;;;;;;2.40;1.07;;;18.50;77.60;;;;;;5013648;28;20446;-86
2021/01/22 11:49:30;;;;;;;1.00;0.90;;;19.30;72.30;;;;;;5012613;28;20954;-87
2021/01/22 11:51:57;;;;;;;2.33;1.03;;;18.10;72.80;;;;;;5013263;28;20565;-86
2021/01/22 11:54:23;;;;;;;2.40;1.70;;;17.10;75.90;;;;;;5013300;28;20454;-86
2021/01/22 11:56:50;;;;;;;1.97;1.40;;;16.90;77.50;;;;;;5013533;28;20493;-86
2021/01/22 11:59:17;;;;;;;1.40;0.87;;;16.80;78.00;;;;;;5012962;28;20449;-87
2021/01/22 12:01:44;;;;;;;1.23;1.07;;;16.30;78.60;;;;;;5014551;28;20478;-86
2021/01/22 12:04:10;;;;;;;3.83;0.97;;;15.90;80.00;;;;;;5014675;28;20446;-86
2021/01/22 12:06:36;;;;;;;2.53;1.50;;;15.60;81.00;;;;;;5010370;28;20497;-87
2021/01/22 12:09:03;;;;;;;1.50;1.30;;;15.50;81.50;;;;;;5013174;28;20449;-87
2021/01/22 12:11:29;;;;;;;2.50;1.37;;;15.40;82.10;;;;;;5012562;28;20438;-87
2021/01/22 12:13:56;;;;;;;1.73;1.00;;;15.50;82.50;;;;;;5010681;28;20924;-86
2021/01/22 12:16:23;;;;;;;5.90;2.10;;;15.50;82.20;;;;;;5012635;28;20466;-87
2021/01/22 12:18:49;;;;;;;1.57;0.87;;;15.60;82.50;;;;;;5012705;28;20457;-87
2021/01/22 12:21:15;;;;;;;1.00;0.70;;;15.60;82.00;;;;;;5012191;28;20558;-86
2021/01/22 12:23:42;;;;;;;3.67;1.20;;;15.60;81.50;;;;;;5010864;28;20451;-87
2021/01/22 12:26:09;;;;;;;2.03;0.80;;;15.60;81.90;;;;;;5012551;28;20844;-86
2021/01/22 12:28:35;;;;;;;6.30;1.30;;;15.70;81.90;;;;;;5012570;28;20457;-86
2021/01/22 12:31:02;;;;;;;2.83;0.80;;;16.20;80.30;;;;;;5012429;28;20442;-86
2021/01/22 12:33:29;;;;;;;3.07;1.10;;;16.20;78.70;;;;;;5008786;28;20514;-86
2021/01/22 12:35:56;;;;;;;4.00;1.20;;;16.60;77.70;;;;;;5012331;28;20565;-86
2021/01/22 12:38:22;;;;;;;2.40;1.00;;;16.90;77.50;;;;;;5010815;28;20497;-86
2021/01/22 12:40:48;;;;;;;1.40;0.80;;;16.90;75.90;;;;;;5012255;28;20443;-86
2021/01/22 12:43:15;;;;;;;3.00;1.90;;;17.20;75.30;;;;;;5012146;28;20790;-86
2021/01/22 12:45:41;;;;;;;4.60;1.70;;;17.40;74.80;;;;;;5009684;28;20470;-86
2021/01/22 12:48:08;;;;;;;4.47;3.67;;;17.40;73.20;;;;;;5011979;28;20485;-86
2021/01/22 12:50:35;;;;;;;4.27;2.47;;;17.20;72.60;;;;;;5012634;28;20541;-86
2021/01/22 12:53:02;;;;;;;3.17;1.37;;;16.80;74.00;;;;;;5007567;28;20450;-86
2021/01/22 12:55:28;;;;;;;2.73;1.50;;;16.60;73.70;;;;;;5011474;28;20478;-85
2021/01/22 12:57:54;;;;;;;2.17;1.53;;;16.30;74.20;;;;;;5011267;28;20450;-85
2021/01/22 13:00:21;;;;;;;3.50;1.13;;;16.20;74.60;;;;;;5010549;28;20994;-86
2021/01/22 13:02:47;;;;;;;3.70;2.30;;;16.00;75.20;;;;;;5011476;28;20481;-82
2021/01/22 13:05:15;;;;;;;2.87;0.87;;;16.00;76.20;;;;;;5012288;28;20463;-84
2021/01/22 13:07:42;;;;;;;6.63;1.93;;;15.90;75.70;;;;;;5012684;28;20449;-82
2021/01/22 13:10:10;;;;;;;1.80;1.07;;;15.80;76.40;;;;;;5012017;28;20454;-82
2021/01/22 13:12:36;;;;;;;3.50;1.00;;;15.70;76.90;;;;;;5012523;28;20453;-86
2021/01/22 13:15:03;;;;;;;2.13;1.00;;;15.70;77.40;;;;;;5012332;28;20469;-85
2021/01/22 13:17:29;;;;;;;1.10;0.97;;;15.70;77.60;;;;;;5011942;28;20454;-86
2021/01/22 13:19:56;;;;;;;2.50;1.07;;;15.50;77.30;;;;;;5011873;28;20810;-85
2021/01/22 13:22:22;;;;;;;3.17;1.33;;;15.60;78.10;;;;;;5012258;28;21064;-85
2021/01/22 13:24:49;;;;;;;2.97;1.10;;;15.70;77.70;;;;;;5011459;28;20450;-84
2021/01/22 13:27:15;;;;;;;2.50;0.90;;;15.80;77.50;;;;;;5011926;28;20457;-86
2021/01/22 13:29:41;;;;;;;2.20;1.40;;;15.90;77.00;;;;;;5012191;28;20456;-85
2021/01/22 13:32:07;;;;;;;3.20;0.90;;;16.10;76.90;;;;;;5010963;28;20959;-84
2021/01/22 13:34:34;;;;;;;2.10;1.20;;;16.20;76.90;;;;;;5011693;28;20447;-85
2021/01/22 13:37:00;;;;;;;4.53;1.10;;;16.30;76.60;;;;;;5012044;28;20457;-85
2021/01/22 13:39:27;;;;;;;8.23;2.83;;;16.50;75.60;;;;;;5011926;28;20446;-86
2021/01/22 13:41:54;;;;;;;1.93;1.73;;;16.60;75.50;;;;;;5011507;28;20494;-85
2021/01/22 13:44:20;;;;;;;3.40;1.97;;;16.60;76.80;;;;;;5011410;28;20970;-86
2021/01/22 13:46:46;;;;;;;2.80;2.00;;;16.30;82.20;;;;;;5012046;28;20499;-85
2021/01/22 13:49:12;;;;;;;3.60;2.40;;;15.70;85.60;;;;;;5012125;28;20442;-84
2021/01/22 13:51:38;;;;;;;5.30;2.67;;;15.30;88.20;;;;;;5011591;28;20457;-85
2021/01/22 13:54:05;;;;;;;4.67;2.70;;;15.00;89.40;;;;;;5011436;28;20785;-85
2021/01/22 13:56:31;;;;;;;3.63;2.50;;;14.60;90.30;;;;;;5010926;28;20466;-86
2021/01/22 13:58:58;;;;;;;4.03;2.10;;;14.40;91.00;;;;;;5011773;28;20903;-84
2021/01/22 14:01:25;;;;;;;2.70;2.20;;;14.10;91.50;;;;;;5011295;28;21020;-84
2021/01/22 14:03:51;;;;;;;3.40;2.37;;;13.90;91.90;;;;;;5011362;28;20456;-86
2021/01/22 14:06:17;;;;;;;2.63;2.43;;;13.80;92.40;;;;;;5010905;28;20534;-87
2021/01/22 14:08:43;;;;;;;3.13;2.20;;;13.70;92.70;;;;;;5008258;28;20463;-85
2021/01/22 14:11:09;;;;;;;2.87;1.90;;;13.60;92.90;;;;;;5011437;28;20436;-84
2021/01/22 14:13:36;;;;;;;3.53;2.30;;;13.40;93.00;;;;;;5011184;28;20450;-86
2021/01/22 14:16:04;;;;;;;2.77;2.50;;;13.20;93.40;;;;;;5006852;28;20469;-86
2021/01/22 14:18:30;;;;;;;2.93;2.27;;;13.00;93.80;;;;;;5010810;28;20492;-85
2021/01/22 14:20:56;;;;;;;2.07;1.90;;;12.90;94.10;;;;;;5013959;28;20427;-86
2021/01/22 14:23:25;;;;;;;2.53;1.90;;;12.60;94.40;;;;;;5010765;28;20545;-89
2021/01/22 14:25:52;;;;;;;3.90;2.40;;;12.40;94.60;;;;;;5010362;28;20470;-86
2021/01/22 14:28:18;;;;;;;2.40;2.13;;;12.20;95.50;;;;;;5008771;28;20442;-86
2021/01/22 14:30:44;;;;;;;2.67;2.00;;;11.90;96.00;;;;;;5010584;28;20523;-86
2021/01/22 14:33:11;;;;;;;4.43;2.40;;;11.70;96.60;;;;;;5010233;28;20529;-86
2021/01/22 14:35:38;;;;;;;2.73;2.20;;;11.30;97.50;;;;;;5010860;28;20989;-86
2021/01/22 14:38:04;;;;;;;3.33;2.37;;;10.90;98.30;;;;;;5011157;28;20464;-86
2021/01/22 14:40:30;;;;;;;4.77;2.70;;;10.60;98.90;;;;;;5008501;28;20494;-86
2021/01/22 14:42:56;;;;;;;3.03;2.70;;;10.40;99.60;;;;;;5011367;28;20482;-87
2021/01/22 14:45:23;;;;;;;3.37;3.07;;;10.20;99.90;;;;;;5014515;28;20997;-84
2021/01/22 14:47:49;;;;;;;2.70;2.50;;;10.00;99.90;;;;;;5014585;28;20457;-86
2021/01/22 14:50:16;;;;;;;3.83;3.43;;;9.80;99.90;;;;;;5014127;28;20962;-85
2021/01/22 14:52:42;;;;;;;3.40;3.10;;;9.60;99.90;;;;;;5014363;28;20442;-85
2021/01/22 14:55:09;;;;;;;2.97;2.77;;;9.50;99.90;;;;;;5014660;28;20569;-85
2021/01/22 14:57:36;;;;;;;4.10;3.80;;;9.40;99.90;;;;;;5014404;28;20461;-85
2021/01/22 15:00:04;;;;;;;3.13;2.87;;;9.30;99.90;;;;;;5013075;28;20454;-85
2021/01/22 15:02:31;;;;;;;3.03;2.83;;;9.10;99.90;;;;;;5012271;28;20487;-84
2021/01/22 15:04:57;;;;;;;3.73;3.43;;;9.10;99.90;;;;;;5014368;28;20466;-85
2021/01/22 15:07:24;;;;;;;4.37;3.37;;;9.10;99.90;;;;;;5014135;28;20450;-85
2021/01/22 15:09:50;;;;;;;4.03;3.67;;;9.10;99.90;;;;;;5011819;28;20979;-84
2021/01/22 15:12:16;;;;;;;3.50;3.20;;;9.10;99.90;;;;;;5012065;28;20430;-86
2021/01/22 15:14:42;;;;;;;3.60;3.30;;;9.00;99.90;;;;;;5013919;28;20959;-85
2021/01/22 15:17:10;;;;;;;4.30;3.30;;;9.00;99.90;;;;;;5013854;28;20434;-87
2021/01/22 15:19:37;;;;;;;3.43;3.23;;;8.90;99.90;;;;;;5011142;28;20877;-86
2021/01/22 15:22:03;;;;;;;3.77;2.90;;;8.90;99.90;;;;;;5013912;28;20540;-87
2021/01/22 15:24:30;;;;;;;3.77;3.47;;;8.90;99.90;;;;;;5013733;28;20822;-86
2021/01/22 15:27:00;;;;;;;3.70;3.20;;;8.90;99.90;;;;;;5013782;28;20545;-88
2021/01/22 15:29:26;;;;;;;3.40;3.10;;;8.80;99.90;;;;;;5011490;28;20522;-90
2021/01/22 15:31:52;;;;;;;4.40;3.87;;;8.80;99.90;;;;;;5013793;28;20442;-88
2021/01/22 15:34:19;;;;;;;3.23;3.03;;;8.80;99.90;;;;;;5013691;28;20907;-87
2021/01/22 15:36:45;;;;;;;3.90;3.60;;;8.70;99.90;;;;;;5011627;28;20812;-88
2021/01/22 15:39:11;;;;;;;4.03;3.73;;;8.70;99.90;;;;;;5011563;28;20465;-86
2021/01/22 15:41:38;;;;;;;4.13;3.73;;;8.60;99.90;;;;;;5013466;28;20492;-86
2021/01/22 15:44:05;;;;;;;3.80;3.37;;;8.70;99.90;;;;;;5013686;28;20438;-87
2021/01/22 15:46:31;;;;;;;4.33;4.03;;;8.60;99.90;;;;;;5011320;28;20469;-88
2021/01/22 15:48:57;;;;;;;5.80;5.30;;;8.60;99.90;;;;;;5011015;28;20446;-87
2021/01/22 15:51:24;;;;;;;5.80;4.83;;;8.50;99.90;;;;;;5012277;28;20430;-87
2021/01/22 15:53:50;;;;;;;5.03;4.30;;;8.40;99.90;;;;;;5013708;28;20448;-89
2021/01/22 15:56:17;;;;;;;5.97;5.47;;;8.40;99.90;;;;;;5012907;28;20454;-88
2021/01/22 15:58:45;;;;;;;6.00;5.40;;;8.30;99.90;;;;;;5013600;28;20529;-89
2021/01/22 16:01:11;;;;;;;5.80;5.40;;;8.20;99.90;;;;;;5010558;28;20442;-89
2021/01/22 16:03:37;;;;;;;6.13;4.83;;;8.10;99.90;;;;;;5013325;28;20447;-89
2021/01/22 16:06:04;;;;;;;6.80;6.20;;;8.10;99.90;;;;;;5013231;28;20538;-88
2021/01/22 16:08:31;;;;;;;13.77;12.43;;;8.10;99.90;;;;;;5010556;28;21183;-88
2021/01/22 16:10:57;;;;;;;7.07;6.47;;;8.10;99.90;;;;;;5012830;28;20579;-90
2021/01/22 16:13:23;;;;;;;6.83;6.23;;;8.10;99.90;;;;;;5013126;28;20529;-89
2021/01/22 16:15:51;;;;;;;7.80;7.10;;;8.00;99.90;;;;;;5012961;28;20473;-89
2021/01/22 16:18:17;;;;;;;6.97;6.37;;;8.10;99.90;;;;;;5008735;28;20462;-90
2021/01/22 16:20:44;;;;;;;7.70;7.10;;;8.10;99.90;;;;;;5013533;28;20446;-90
2021/01/22 16:23:13;;;;;;;8.27;7.50;;;8.00;99.90;;;;;;5012972;28;21030;-89
2021/01/22 16:25:40;;;;;;;8.60;7.80;;;7.90;99.90;;;;;;5013558;28;20466;-89
2021/01/22 16:28:06;;;;;;;7.33;6.60;;;7.90;99.90;;;;;;5012924;28;20450;-89
2021/01/22 16:30:32;;;;;;;10.70;9.80;;;8.00;99.90;;;;;;5011415;28;20836;-89
2021/01/22 16:32:59;;;;;;;8.47;7.77;;;7.90;99.90;;;;;;5014641;28;20496;-89
2021/01/22 16:35:25;;;;;;;8.73;8.00;;;7.90;99.90;;;;;;5018218;28;20442;-91
2021/01/22 16:37:52;;;;;;;8.40;7.70;;;7.80;99.90;;;;;;5032763;28;20445;-89
2021/01/22 16:40:18;;;;;;;8.43;7.83;;;7.80;99.90;;;;;;5014971;28;20442;-90
2021/01/22 16:42:44;;;;;;;9.23;8.30;;;7.80;99.90;;;;;;5012693;28;20485;-91
2021/01/22 16:45:11;;;;;;;10.47;9.47;;;7.80;99.90;;;;;;5011978;28;20465;-90
2021/01/22 16:47:38;;;;;;;8.97;8.30;;;7.70;99.90;;;;;;5011299;28;20457;-90
2021/01/22 16:50:07;;;;;;;8.90;8.20;;;7.80;99.90;;;;;;5010547;28;20481;-91
2021/01/22 16:52:33;;;;;;;8.37;7.67;;;7.90;99.90;;;;;;5010760;28;20451;-91
2021/01/22 16:54:59;;;;;;;9.13;8.43;;;7.80;99.90;;;;;;5012418;28;20455;-90
2021/01/22 16:57:26;;;;;;;8.00;7.20;;;7.80;99.90;;;;;;5011702;28;20472;-89
2021/01/22 16:59:52;;;;;;;7.37;6.63;;;7.80;99.90;;;;;;5012528;28;20446;-91
2021/01/22 17:02:18;;;;;;;8.07;7.07;;;7.80;99.90;;;;;;5012107;28;20473;-91
2021/01/22 17:04:44;;;;;;;9.80;5.67;;;7.80;99.90;;;;;;5013115;28;20442;-90
2021/01/22 17:07:11;;;;;;;6.27;5.67;;;7.70;99.90;;;;;;5010847;28;20439;-91
2021/01/22 17:09:38;;;;;;;8.00;6.13;;;7.80;99.90;;;;;;5012231;28;20458;-89
2021/01/22 17:12:05;;;;;;;6.37;5.77;;;7.80;99.90;;;;;;5011708;28;20438;-91
2021/01/22 17:14:33;;;;;;;7.30;6.57;;;7.70;99.90;;;;;;5012250;28;20790;-90
2021/01/22 17:16:59;;;;;;;7.23;6.50;;;7.70;99.90;;;;;;5011762;28;20446;-89
2021/01/22 17:19:26;;;;;;;8.10;6.97;;;7.60;99.90;;;;;;5011947;28;20462;-91
2021/01/22 17:21:52;;;;;;;6.13;5.57;;;7.70;99.90;;;;;;5012769;28;20482;-90
2021/01/22 17:24:19;;;;;;;7.30;6.70;;;7.70;99.90;;;;;;5011591;28;20442;-90
2021/01/22 17:26:49;;;;;;;9.57;7.00;;;7.70;99.90;;;;;;5010327;28;20561;-90
2021/01/22 17:29:15;;;;;;;7.90;6.43;;;7.70;99.90;;;;;;5011189;28;20524;-88
2021/01/22 17:31:41;;;;;;;6.47;5.17;;;7.60;99.90;;;;;;5011452;28;20446;-88
2021/01/22 17:34:08;;;;;;;4.03;3.73;;;7.60;99.90;;;;;;5009042;28;20446;-90
2021/01/22 17:36:34;;;;;;;4.87;4.30;;;7.60;99.90;;;;;;5011514;28;20510;-88
2021/01/22 17:39:00;;;;;;;4.70;4.30;;;7.60;99.90;;;;;;5011221;28;20426;-88
2021/01/22 17:41:28;;;;;;;5.13;4.57;;;7.60;99.90;;;;;;5011431;28;20878;-89
2021/01/22 17:43:54;;;;;;;4.30;3.90;;;7.50;99.90;;;;;;5010694;28;20530;-91
2021/01/22 17:46:20;;;;;;;4.00;3.70;;;7.50;99.90;;;;;;5011655;28;20528;-89
2021/01/22 17:48:46;;;;;;;6.33;3.83;;;7.60;99.90;;;;;;5012913;28;20469;-89
2021/01/22 17:51:12;;;;;;;9.70;4.00;;;7.60;99.90;;;;;;5011176;28;20446;-92
2021/01/22 17:53:39;;;;;;;3.87;3.57;;;7.50;99.90;;;;;;5011355;28;20462;-90
2021/01/22 17:56:06;;;;;;;5.70;5.07;;;7.50;99.90;;;;;;5011720;28;20453;-91
2021/01/22 17:58:33;;;;;;;4.50;3.80;;;7.50;99.90;;;;;;5009980;28;20477;-90
2021/01/22 18:00:59;;;;;;;4.90;4.10;;;7.50;99.90;;;;;;5011458;28;20444;-91
2021/01/22 18:03:25;;;;;;;4.43;3.80;;;7.50;99.90;;;;;;5008647;28;21001;-89
2021/01/22 18:05:52;;;;;;;3.83;3.43;;;7.50;99.90;;;;;;5011546;28;20470;-90
2021/01/22 18:08:18;;;;;;;4.50;4.10;;;7.60;99.90;;;;;;5011158;28;20503;-88
2021/01/22 18:10:45;;;;;;;4.90;3.97;;;7.50;99.90;;;;;;5011144;28;20946;-91
2021/01/22 18:13:12;;;;;;;4.20;3.90;;;7.50;99.90;;;;;;5008466;28;20450;-89
2021/01/22 18:15:39;;;;;;;4.20;3.50;;;7.50;99.90;;;;;;5010480;28;20472;-88
2021/01/22 18:18:05;;;;;;;4.60;4.20;;;7.50;99.90;;;;;;5014948;28;20523;-84
2021/01/22 18:20:31;;;;;;;4.23;3.83;;;7.40;99.90;;;;;;5017403;28;20802;-85
2021/01/22 18:22:58;;;;;;;4.47;4.17;;;7.40;99.90;;;;;;5016286;28;21257;-85
2021/01/22 18:25:24;;;;;;;5.30;3.57;;;7.40;99.90;;;;;;5017079;28;20462;-85
2021/01/22 18:27:51;;;;;;;5.47;4.30;;;7.40;99.90;;;;;;5017333;28;20469;-84
2021/01/22 18:30:18;;;;;;;6.80;4.80;;;7.40;99.90;;;;;;5014977;28;20438;-85
2021/01/22 18:32:45;;;;;;;3.80;3.50;;;7.40;99.90;;;;;;5016935;28;20448;-85
2021/01/22 18:35:12;;;;;;;5.03;4.00;;;7.40;99.90;;;;;;5017060;28;20458;-84
2021/01/22 18:37:38;;;;;;;6.33;4.90;;;7.40;99.90;;;;;;5017362;28;21085;-84
2021/01/22 18:40:06;;;;;;;4.23;3.83;;;7.40;99.90;;;;;;5016431;28;20445;-84
2021/01/22 18:42:32;;;;;;;5.77;5.10;;;7.40;99.90;;;;;;5012481;28;20472;-84
2021/01/22 18:44:58;;;;;;;4.87;4.07;;;7.40;99.90;;;;;;5017390;28;20496;-85
2021/01/22 18:47:24;;;;;;;4.80;4.03;;;7.40;99.90;;;;;;5017123;28;20441;-85
2021/01/22 18:49:51;;;;;;;5.43;4.60;;;7.40;99.90;;;;;;5017507;28;20437;-85
2021/01/22 18:52:18;;;;;;;4.43;4.03;;;7.50;99.90;;;;;;5013429;28;20523;-86
2021/01/22 18:54:48;;;;;;;5.17;4.73;;;7.50;99.90;;;;;;5017275;28;20445;-85
2021/01/22 18:57:14;;;;;;;4.73;4.23;;;7.40;99.90;;;;;;5022005;28;20519;-85
2021/01/22 18:59:40;;;;;;;5.50;5.00;;;7.40;99.90;;;;;;5018582;28;20446;-86
2021/01/22 19:02:07;;;;;;;6.13;4.60;;;7.40;99.90;;;;;;5014076;28;20481;-88